Terminal Aerodrome Forecast
Issued by NWS

Current Version | Previous Version | Text Only | Print | Product List | Glossary Off
Versions: 1 2 3 4 5 6 7 8 9 10 11 12 13 14 15 16 17 18 19 20 21 22

000
FTUS41 KRNK 201745
TAFLWB
TAF
KLWB 201745Z 2018/2118 00000KT P6SM SKC
     FM202100 25004KT P6SM BKN100
     FM210100 00000KT 6SM -SHRA OVC035
     FM210300 24004KT 6SM -SHRA OVC025
     FM210700 25005KT 6SM -SHRA BKN008
     FM211600 30007KT P6SM BKN015=

USA.gov is the U.S. government's official web portal to all federal, state and local government web resources and services.